Tiempo atmosférico en la estación meteorológica de Bossòst, Lleida (725 m.)

Fecha
DESCASC
Temp. máxima en grados centígrados (hora)
DESCASC
Temp. mínima en grados centígrados (hora)
DESCASC
Temp. media en grados centígrados
DESCASC
Racha de viento máxima en m/sg (hora)
DESCASC
Velocidad máxima media en intervalos de 10 minutos(hora)
DESCASC
Precipitaciones diarias en mm
DESCASC
Precipitaciones de 00:00 a 06:00 en mm
DESCASC
Precipitaciones de 06:00 a 12:00 en mm
DESCASC
Precipitaciones de 12:00 a 18:00 en mm
DESCASC
Precipitaciones de 18:00 a 24:00 en mm
DESCASC
24-09-2017 25.7 (15:30) 8.3 (05:20) 17 7.5 (07:20) 5 (07:00) 0 0 0 0 0
23-09-2017 24.5 (15:20) 8 (07:20) 16.3 7.5 (15:00) 4.72 (23:30) 0 0 0 0 0
22-09-2017 17.2 (12:50) 7 (06:30) 12.1 4.17 (15:10) 2.78 (00:40) 3.6 0 0 3.4 0.2
21-09-2017 24.1 (15:20) 7 (00:00) 15.6 6.67 (16:20) 3.33 (16:20) 0 0 0 0 0
20-09-2017 19.6 (16:00) 2.6 (00:00) 11.1 5.83 (17:00) 3.33 (22:20) 0 0 0 0 0
19-09-2017 15.5 (14:20) 5.5 (00:00) 10.5 9.17 (13:50) 4.17 (13:50) 0 0 0 0 0
18-09-2017 14.1 (14:00) 8.4 (00:00) 11.3 5 (18:20) 2.22 (15:10) 6.4 0 3.8 1.8 0.8
17-09-2017 17.5 (15:00) 3 (00:00) 10.3 7.78 (17:00) 3.89 (16:20) 0.2 0 0.2 0 0
16-09-2017 15.7 (14:00) 4.7 (00:00) 10.2 6.39 (13:10) 3.89 (08:10) 8 0 0 5 3
15-09-2017 15.6 (15:30) 8.2 (00:00) 11.9 6.67 (17:00) 3.89 (17:00) 2.4 1 1.2 0 0.2
14-09-2017 15.3 (11:30) 10.2 (00:00) 12.8 8.33 (13:20) 3.33 (11:40) 1.2 0 1 0.2 0
13-09-2017 23.6 (15:00) 7.8 (00:00) 15.7 7.5 (15:30) 3.61 (06:30) 0 0 0 0 0
12-09-2017 18.5 (14:20) 9.5 (00:00) 14 6.39 (14:30) 3.33 (14:30) 1.2 0.8 0.4 0 0
11-09-2017 16.1 (13:20) 9.6 (00:00) 12.9 9.17 (15:00) 3.89 (00:10) 2.8 0 0.8 2 0
10-09-2017 14.2 (15:30) 8.3 (00:00) 11.3 4.72 (14:20) 3.33 (23:59) 4 0.6 2.4 1 0
09-09-2017 16.1 (15:10) 8.7 (00:00) 12.4 8.61 (16:10) 3.89 (00:30) 6.2 0 5.4 0.6 0.2
08-09-2017 22.4 (15:50) 6.4 (00:00) 14.4 6.67 (06:30) 4.44 (06:30) 0 0 0 0 0
07-09-2017 19.2 (14:00) 12.2 (00:00) 15.7 8.89 (15:00) 5 (15:30) 0 0 0 0 0
06-09-2017 19.9 (14:20) 14.6 (00:00) 17.3 6.11 (17:20) 3.06 (17:30) 0 0 0 0 0
05-09-2017 27.7 (16:00) 11.4 (00:00) 19.6 7.78 (16:30) 3.89 (16:30) 0 0 0 0 0
04-09-2017 23.8 (14:10) 12.2 (00:00) 18 7.5 (04:40) 4.17 (04:50) 3.6 2.4 1.2 0 0
03-09-2017 21.7 (14:50) 5.2 (00:00) 13.5 6.39 (16:30) 3.61 (00:10) 0 0 0 0 0
02-09-2017 18.4 (13:40) 8.7 (00:00) 13.5 7.78 (14:30) 3.61 (14:30) 0 0 0 0 0
01-09-2017 20 (15:00) 10.7 (00:00) 15.3 6.94 (14:30) 3.61 (14:30) 0.6 0 0 0.6 0
31-08-2017 16.4 (15:40) 12 (00:00) 14.2 6.67 (07:00) 2.78 (01:10) 8.2 2.4 5.8 0 0
30-08-2017 28 (13:00) 14.4 (00:00) 21.2 10 (13:10) 5 (13:10) 0 0 0 0 0
29-08-2017 24.7 (14:40) 14.4 (00:00) 19.6 5.56 (02:30) 3.33 (02:30) 0 0 0 0 0
28-08-2017 31.6 (15:40) 13 (00:00) 22.3 16.94 (19:50) 6.94 (19:50) 4 0 0 0 4
27-08-2017 28.8 (16:10) 16.7 (00:00) 22.8 5.28 (00:10) 3.33 (00:30) 0.2 0 0 0 0.2
26-08-2017 32.8 (14:30) 15.1 (00:00) 23.9 6.94 (03:00) 5.83 (03:00) 0 0 0 0 0

Gráficas

Temp. máximas Temp. mínimas Temp. medias Precipitaciones Rachas de viento máximas Velocidades máximas media en intervalos de 10 minutos

Datos horarios

Fecha y hora oficial Temperatura (ºC) Velocidad del viento (km/h) Dirección del viento Racha (km/h) Dirección de racha Precipitación (mm) Presión (hPa) Tendencia (hPa) Humedad (%)
2017-09-24 23:00:00 12.8 10 Sudoeste 15 Sudoeste 0 -- -- 86
2017-09-24 22:00:00 13.6 10 Sudoeste 17 Sur 0 -- -- 83
2017-09-24 21:00:00 14.2 8 Sudoeste 14 Sudoeste 0 -- -- 84
2017-09-24 20:00:00 16 4 Sudoeste 6 Sudoeste 0 -- -- 80
2017-09-24 19:00:00 19 0 Calma 7 Norte 0 -- -- 71
2017-09-24 18:00:00 24.2 2 Norte 13 Norte 0 -- -- 50
2017-09-24 17:00:00 25.5 9 Norte 18 Norte 0 -- -- 40
2017-09-24 16:00:00 25.7 9 Norte 20 Norte 0 -- -- 39
2017-09-24 15:00:00 25.6 10 Norte 21 Norte 0 -- -- 39
2017-09-24 14:00:00 24.7 6 Nordeste 14 Norte 0 -- -- 42
2017-09-24 13:00:00 22 4 Nordeste 6 Nordeste 0 -- -- 58
2017-09-24 12:00:00 18.4 2 Este 4 Sur 0 -- -- 71
2017-09-24 11:00:00 13.8 0 Calma 4 Sudeste 0 -- -- 85
2017-09-24 10:00:00 10.1 0 Calma 15 Sudoeste 0 -- -- 92
2017-09-24 09:00:00 9.9 8 Sur 18 Sudoeste 0 -- -- 88
2017-09-24 08:00:00 9.9 12 Sudoeste 27 Sudoeste 0 -- -- 87
2017-09-24 07:00:00 10.2 18 Sudoeste 25 Sudoeste 0 -- -- 86
2017-09-24 06:00:00 9.2 11 Sudoeste 19 Sudoeste 0 -- -- 93
2017-09-24 05:00:00 8.6 0 Calma 10 Sudoeste 0 -- -- 96
2017-09-24 04:00:00 10 0 Calma 17 Sudoeste 0 -- -- 90
2017-09-24 03:00:00 10.8 9 Sudoeste 21 Sudoeste 0 -- -- 87
2017-09-24 02:00:00 10.6 13 Sudoeste 18 Sudoeste 0 -- -- 90
2017-09-24 01:00:00 11.1 6 Sur 16 Sudoeste 0 -- -- 88
2017-09-24 00:00:00 12 10 Sudoeste 24 Sudoeste 0 -- -- 84
2017-09-23 23:00:00 12.2 12 Sudoeste 19 Sudoeste 0 -- -- 86
2017-09-23 22:00:00 12.8 8 Sur 16 Sudoeste 0 -- -- 86
2017-09-23 21:00:00 13.5 8 Sudoeste 17 Sudoeste 0 -- -- 86
2017-09-23 20:00:00 15 5 Sudoeste 9 Sudoeste 0 -- -- 83
2017-09-23 19:00:00 18.4 0 Calma 5 Este 0 -- -- 74
2017-09-23 18:00:00 22.9 2 Norte 9 Norte 0 -- -- 51
2017-09-23 17:00:00 23.7 4 Norte 13 Norte 0 -- -- 45
2017-09-23 16:00:00 23.9 8 Norte 24 Norte 0 -- -- 41
2017-09-23 15:00:00 24 12 Norte 27 Norte 0 -- -- 45
2017-09-23 14:00:00 23 2 Nordeste 5 Nordeste 0 -- -- 51
2017-09-23 13:00:00 19.9 3 Este 5 Nordeste 0 -- -- 65
2017-09-23 12:00:00 16.1 0 Calma 4 Sudeste 0 -- -- 87
2017-09-23 11:00:00 12.2 2 Sudeste 4 Sur 0 -- -- 99
2017-09-23 10:00:00 8.8 0 Calma 13 Sur 0 -- -- 98
2017-09-23 09:00:00 8.4 7 Sudoeste 14 Sudoeste 0 -- -- 99
2017-09-23 08:00:00 8.2 8 Sudoeste 14 Sudoeste 0 -- -- 100
2017-09-23 07:00:00 8.1 5 Sudoeste 12 Sudoeste 0 -- -- 99
2017-09-23 06:00:00 8.5 4 Sudoeste 12 Sudoeste 0 -- -- 99
2017-09-23 05:00:00 8.6 3 Oeste 9 Sur 0 -- -- 99
2017-09-23 04:00:00 9.4 0 Calma 7 Sudoeste 0 -- -- 98
2017-09-23 03:00:00 10.7 2 Sur 13 Sudoeste 0 -- -- 98
2017-09-23 02:00:00 11.1 5 Sur 14 Sudoeste 0 -- -- 99
2017-09-23 01:00:00 11.3 8 Sudoeste 12 Sudoeste 0 -- -- 99
2017-09-23 00:00:00 11.6 4 Sudoeste 9 Sudoeste 0 -- -- 99
2017-09-22 23:00:00 12.1 3 Sudoeste 9 Sudoeste 0 -- -- 98
2017-09-22 22:00:00 12.6 5 Sudoeste 9 Sudoeste 0 -- -- 98
2017-09-22 21:00:00 13.2 4 Sudoeste 8 Sudoeste 0.2 -- -- 98
2017-09-22 20:00:00 13.5 0 Calma 4 Norte 0 -- -- 98
2017-09-22 19:00:00 13.9 0 Calma 5 Nordeste 0 -- -- 97
2017-09-22 18:00:00 14.3 0 Calma 3 Este 0 -- -- 96
2017-09-22 17:00:00 14.6 0 Calma 4 Nordeste 0.4 -- -- 94
2017-09-22 16:00:00 14 3 Nordeste 15 Sudoeste 2 -- -- 95
2017-09-22 15:00:00 13.9 6 Sudoeste 13 Sudoeste 1 -- -- 93
2017-09-22 14:00:00 15.7 0 Calma 7 Nordeste 0 -- -- 81
2017-09-22 13:00:00 17.2 0 Calma 6 Nordeste 0 -- -- 74
2017-09-22 12:00:00 16.1 3 Nordeste 7 Norte 0 -- -- 71
2017-09-22 11:00:00 13.9 4 Nordeste 12 Sudoeste 0 -- -- 79
2017-09-22 10:00:00 11.2 3 Sur 9 Sudoeste 0 -- -- 90
2017-09-22 09:00:00 8.8 4 Sudoeste 10 Sudoeste 0 -- -- 96
2017-09-22 08:00:00 7.6 0 Calma 7 Sur 0 -- -- 98
2017-09-22 07:00:00 7.2 0 Calma 8 Sudoeste 0 -- -- 99
2017-09-22 06:00:00 7.3 0 Calma 4 Sur 0 -- -- 98
2017-09-22 05:00:00 7.3 2 Sudoeste 8 Sudoeste 0 -- -- 98
2017-09-22 04:00:00 7.7 0 Calma 7 Sudoeste 0 -- -- 97
2017-09-22 03:00:00 8.1 0 Calma 7 Sudoeste 0 -- -- 96
2017-09-22 02:00:00 8.7 4 Sudoeste 9 Sudoeste 0 -- -- 95
2017-09-22 01:00:00 9.7 6 Sudoeste 14 Sudoeste 0 -- -- 93
2017-09-22 00:00:00 10.4 8 Sur 13 Sudoeste 0 -- -- 91
2017-09-21 23:00:00 10.7 5 Sudoeste 11 Sudoeste 0 -- -- 91
2017-09-21 22:00:00 11.3 2 Sudoeste 6 Sudoeste 0 -- -- 89
2017-09-21 21:00:00 12.7 0 Calma 3 Oeste 0 -- -- 84
2017-09-21 20:00:00 15.4 0 Calma 4 Sudoeste 0 -- -- 77
2017-09-21 19:00:00 18.2 3 Sudoeste 6 Nordeste 0 -- -- 70
2017-09-21 18:00:00 22.4 2 Noroeste 18 Norte 0 -- -- 48
2017-09-21 17:00:00 23.4 8 Norte 24 Norte 0 -- -- 42
2017-09-21 16:00:00 23.9 11 Norte 23 Norte 0 -- -- 39
2017-09-21 15:00:00 23.8 7 Norte 21 Norte 0 -- -- 40
2017-09-21 14:00:00 23.7 5 Norte 19 Norte 0 -- -- 39
2017-09-21 13:00:00 21.2 4 Nordeste 8 Este 0 -- -- 49
2017-09-21 12:00:00 17 2 Este 4 Este 0 -- -- 70
2017-09-21 11:00:00 12.5 2 Sudeste 3 Este 0 -- -- 85
2017-09-21 10:00:00 7.6 2 Sudoeste 15 Sudoeste 0 -- -- 94
2017-09-21 09:00:00 8 8 Sur 16 Sudoeste 0 -- -- 90
2017-09-21 08:00:00 7.5 7 Sudoeste 16 Sudoeste 0 -- -- 91
2017-09-21 07:00:00 -- 8 Sur 18 Sur 0 -- -- --
2017-09-21 06:00:00 7.5 6 Sur 16 Sudoeste 0 -- -- 90
2017-09-21 05:00:00 7.3 8 Sudoeste 14 Sudoeste 0 -- -- 91
2017-09-21 04:00:00 7.7 6 Sur 16 Sudoeste 0 -- -- 90
2017-09-21 03:00:00 7.8 9 Sur 17 Sudoeste 0 -- -- 91
2017-09-21 02:00:00 8.1 9 Sudoeste 17 Sudoeste 0 -- -- 91
2017-09-21 01:00:00 8.3 8 Sudoeste 17 Sudoeste 0 -- -- 93
2017-09-21 00:00:00 8.6 10 Sur 18 Sudoeste 0 -- -- 93
2017-09-20 23:00:00 9.3 6 Sur 15 Sudoeste 0 -- -- 93
2017-09-20 22:00:00 9.7 10 Sudoeste 15 Sudoeste 0 -- -- 91
2017-09-20 21:00:00 10.7 8 Sudoeste 14 Sudoeste 0 -- -- 88
2017-09-20 20:00:00 11.8 0 Calma 3 Sudoeste 0 -- -- 85
2017-09-20 19:00:00 14.4 0 Calma 9 Norte 0 -- -- 76
2017-09-20 18:00:00 18.6 4 Norte 18 Nordeste 0 -- -- 57
2017-09-20 17:00:00 19.2 10 Norte 21 Norte 0 -- -- 53
2017-09-20 16:00:00 19.6 9 Norte 18 Norte 0 -- -- 49
2017-09-20 15:00:00 19.1 9 Norte 21 Norte 0 -- -- 49
2017-09-20 14:00:00 18.1 8 Norte 16 Norte 0 -- -- 45
2017-09-20 13:00:00 16.2 5 Nordeste 14 Nordeste 0 -- -- 47
2017-09-20 12:00:00 13.4 3 Nordeste 6 Este 0 -- -- 66
2017-09-20 11:00:00 8 0 Calma 3 Sudeste 0 -- -- 88
2017-09-20 10:00:00 2.9 0 Calma 6 Norte 0 -- -- 96
2017-09-20 09:00:00 3 2 Sur 10 Sudoeste 0 -- -- 93
2017-09-20 08:00:00 2.8 5 Sur 13 Sur 0 -- -- 93
2017-09-20 07:00:00 2.9 4 Sur 12 Sudoeste 0 -- -- 95
2017-09-20 06:00:00 2.8 5 Sur 10 Sur 0 -- -- 98
2017-09-20 05:00:00 3.3 0 Calma 12 Sudoeste 0 -- -- 96
2017-09-20 04:00:00 4 7 Sur 13 Sur 0 -- -- 96
2017-09-20 03:00:00 4.4 5 Sur 14 Sudoeste 0 -- -- 96
2017-09-20 02:00:00 5 10 Sudoeste 18 Sudoeste 0 -- -- 95
2017-09-20 01:00:00 5.2 5 Sur 13 Sur 0 -- -- 95
2017-09-20 00:00:00 5.5 4 Sudoeste 10 Sudoeste 0 -- -- 97
2017-09-19 23:00:00 6.1 0 Calma 10 Sudoeste 0 -- -- 95
2017-09-19 22:00:00 6.8 0 Calma 4 Sudoeste 0 -- -- 92
2017-09-19 21:00:00 8.6 0 Calma 5 Sudoeste 0 -- -- 88
2017-09-19 20:00:00 11.1 2 Nordeste 8 Norte 0 -- -- 76
2017-09-19 19:00:00 13 4 Norte 13 Nordeste 0 -- -- 63
2017-09-19 18:00:00 14.6 5 Norte 17 Nordeste 0 -- -- 56
2017-09-19 17:00:00 14.2 9 Norte 24 Nordeste 0 -- -- 57
2017-09-19 16:00:00 14 12 Norte 27 Norte 0 -- -- 55
2017-09-19 15:00:00 14.1 14 Norte 27 Norte 0 -- -- 58
2017-09-19 14:00:00 14.2 14 Norte 33 Norte 0 -- -- 58
2017-09-19 13:00:00 14.6 11 Norte 23 Norte 0 -- -- 60
2017-09-19 12:00:00 13.5 6 Nordeste 14 Norte 0 -- -- 66
2017-09-19 11:00:00 10.3 2 Este 4 Este 0 -- -- 92
2017-09-19 10:00:00 6.5 0 Calma 8 Sudoeste 0 -- -- 98
2017-09-19 09:00:00 6 4 Sudoeste 10 Sur 0 -- -- 99
2017-09-19 08:00:00 5.5 4 Sudoeste 10 Sudoeste 0 -- -- 99
2017-09-19 07:00:00 5.7 4 Oeste 10 Sudoeste 0 -- -- 100
2017-09-19 06:00:00 5.6 0 Calma 6 Oeste 0 -- -- 99
2017-09-19 05:00:00 6.3 3 Sudoeste 5 Sudoeste 0 -- -- 99
2017-09-19 04:00:00 6.8 5 Sudoeste 10 Sudoeste 0 -- -- 98
2017-09-19 03:00:00 7.9 0 Calma 6 Sudoeste 0 -- -- 97
2017-09-19 02:00:00 8.8 3 Noroeste 6 Sudoeste 0 -- -- 98
2017-09-19 01:00:00 8.8 0 Calma 10 Sudoeste 0 -- -- 99
2017-09-19 00:00:00 8.8 4 Sudoeste 8 Sudoeste 0 -- -- 100
2017-09-18 23:00:00 8.5 0 Calma 4 Sudeste 0 -- -- 98
2017-09-18 22:00:00 9.3 0 Calma 4 Sur 0 -- -- 97
2017-09-18 21:00:00 10.1 2 Sur 6 Sudeste 0 -- -- 96
2017-09-18 20:00:00 10.8 2 Sur 10 Nordeste 0.2 -- -- 94
2017-09-18 19:00:00 11.1 4 Norte 18 Norte 0.6 -- -- 93
2017-09-18 18:00:00 12 5 Norte 16 Norte 0.8 -- -- 90
2017-09-18 17:00:00 12.5 4 Sur 8 Nordeste 0.4 -- -- 91
2017-09-18 16:00:00 13.4 3 Sur 15 Nordeste 0.6 -- -- 89
2017-09-18 15:00:00 13.8 8 Norte 17 Norte 0 -- -- 78
2017-09-18 14:00:00 14.1 7 Norte 13 Norte 0 -- -- 76
2017-09-18 13:00:00 13.6 4 Norte 10 Norte 0 -- -- 80
2017-09-18 12:00:00 11.9 2 Nordeste 4 Norte 0.4 -- -- 90
2017-09-18 11:00:00 10.3 0 Calma 4 Nordeste 0.8 -- -- 97
2017-09-18 10:00:00 9.9 2 Nordeste 5 Norte 0.6 -- -- 99
2017-09-18 09:00:00 9.5 3 Nordeste 5 Sur 1.6 -- -- 99
2017-09-18 08:00:00 9.5 3 Sudoeste 13 Sudoeste 0.4 -- -- 97
2017-09-18 07:00:00 9.5 0 Calma 2 Sudoeste 0 -- -- 96
2017-09-18 06:00:00 9.4 0 Calma 0 Calma 0 -- -- 96
2017-09-18 05:00:00 9.5 0 Calma 0 Calma 0 -- -- 95
2017-09-18 04:00:00 9.8 0 Calma 0 Calma 0 -- -- 94
2017-09-18 03:00:00 10 0 Calma 0 Calma 0 -- -- 93
2017-09-18 02:00:00 10.1 0 Calma 0 Calma 0 -- -- 92
2017-09-18 01:00:00 10.5 0 Calma 4 Sudoeste 0 -- -- 88
2017-09-18 00:00:00 11.1 0 Calma 5 Sur 0 -- -- 88
2017-09-17 23:00:00 11.3 2 Nordeste 9 Norte 0 -- -- 85
2017-09-17 22:00:00 11.6 2 Sudoeste 4 Sudeste 0 -- -- 86
2017-09-17 21:00:00 12 4 Nordeste 12 Nordeste 0 -- -- 81
2017-09-17 20:00:00 12.7 3 Nordeste 15 Nordeste 0 -- -- 77
2017-09-17 19:00:00 13.6 5 Norte 13 Nordeste 0 -- -- 71
2017-09-17 18:00:00 14.4 9 Norte 26 Norte 0 -- -- 67
2017-09-17 17:00:00 15.6 13 Norte 28 Nordeste 0 -- -- 64
2017-09-17 16:00:00 17.1 13 Norte 23 Norte 0 -- -- 55
2017-09-17 15:00:00 17.5 10 Norte 20 Norte 0 -- -- 54
2017-09-17 14:00:00 16.3 8 Norte 19 Norte 0 -- -- 60
2017-09-17 13:00:00 14.6 5 Nordeste 13 Norte 0 -- -- 64
2017-09-17 12:00:00 13.1 2 Este 6 Sur 0.2 -- -- 70
2017-09-17 11:00:00 9.1 2 Sudeste 4 Sur 0 -- -- 91
2017-09-17 10:00:00 4 2 Nordeste 6 Sur 0 -- -- 100
2017-09-17 09:00:00 3.7 4 Sur 14 Sudoeste 0 -- -- 99
2017-09-17 08:00:00 3.5 10 Sudoeste 21 Sudoeste 0 -- -- 99
2017-09-17 07:00:00 3.3 0 Calma 6 Nordeste 0 -- -- 100
2017-09-17 06:00:00 3.7 2 Sur 5 Sudoeste 0 -- -- 98
2017-09-17 05:00:00 4.3 3 Sur 9 Sur 0 -- -- 98
2017-09-17 04:00:00 4.4 5 Sur 22 Sudoeste 0 -- -- 97
2017-09-17 03:00:00 3.9 9 Sudoeste 14 Sudoeste 0 -- -- 99
2017-09-17 02:00:00 4 6 Sudoeste 16 Sudoeste 0 -- -- 98
2017-09-17 01:00:00 4.3 8 Sudoeste 15 Sudoeste 0 -- -- 98
2017-09-17 00:00:00 4.7 4 Sudoeste 12 Sudoeste 0 -- -- 98
2017-09-16 23:00:00 5.5 0 Calma 9 Sudoeste 0 -- -- 97
2017-09-16 22:00:00 6.9 3 Este 4 Nordeste 0 -- -- 97
2017-09-16 21:00:00 7.7 2 Sudeste 6 Nordeste 0 -- -- 97
2017-09-16 20:00:00 8.2 3 Nordeste 5 Este 2.2 -- -- 95
2017-09-16 19:00:00 8.7 2 Nordeste 6 Nordeste 0.8 -- -- 93
2017-09-16 18:00:00 9.1 2 Nordeste 7 Nordeste 3.6 -- -- 93
2017-09-16 17:00:00 10.4 3 Este 19 Sudoeste 0.2 -- -- 86
2017-09-16 16:00:00 11.2 2 Sudeste 14 Nordeste 1.2 -- -- 80
2017-09-16 15:00:00 13.4 6 Norte 23 Norte 0 -- -- 60
2017-09-16 14:00:00 15.7 10 Norte 23 Norte 0 -- -- 53
2017-09-16 13:00:00 14.4 10 Norte 21 Norte 0 -- -- 52
2017-09-16 12:00:00 13.2 5 Nordeste 13 Norte 0 -- -- 58
2017-09-16 11:00:00 9.5 0 Calma 4 Sudeste 0 -- -- 79
2017-09-16 10:00:00 5.2 0 Calma 13 Sudoeste 0 -- -- 96
2017-09-16 09:00:00 5.1 10 Sudoeste 18 Sudoeste 0 -- -- 95
2017-09-16 08:00:00 5.9 11 Sudoeste 17 Sudoeste 0 -- -- 94
2017-09-16 07:00:00 6.7 8 Sudoeste 13 Sudoeste 0 -- -- 96
2017-09-16 06:00:00 6.9 2 Sudoeste 7 Sudoeste 0 -- -- 98
2017-09-16 05:00:00 6.9 0 Calma 5 Sudoeste 0 -- -- 98
2017-09-16 04:00:00 7.2 3 Sur 5 Sudoeste 0 -- -- 97
2017-09-16 03:00:00 7.5 3 Sudoeste 3 Sudoeste 0 -- -- 98
2017-09-16 02:00:00 7.7 0 Calma 3 Sudoeste 0 -- -- 96
2017-09-16 01:00:00 8.2 3 Sudoeste 7 Sudoeste 0 -- -- 97
2017-09-16 00:00:00 8.3 2 Sudoeste 6 Sudoeste 0 -- -- 96
2017-09-15 23:00:00 8.7 0 Calma 4 Sudeste 0 -- -- 95
2017-09-15 22:00:00 9 2 Sudoeste 5 Sudeste 0 -- -- 94
2017-09-15 21:00:00 9.4 2 Sudeste 4 Noroeste 0 -- -- 91
2017-09-15 20:00:00 10.1 2 Este 12 Norte 0.2 -- -- 91
2017-09-15 19:00:00 11.4 0 Calma 8 Sur 0 -- -- 85
2017-09-15 18:00:00 11.8 2 Sudeste 20 Norte 0 -- -- 79
2017-09-15 17:00:00 13.6 14 Norte 24 Norte 0 -- -- 65
2017-09-15 16:00:00 14.8 5 Norte 13 Sudoeste 0 -- -- 58
2017-09-15 15:00:00 13.8 6 Sudoeste 16 Sudoeste 0 -- -- 63
2017-09-15 14:00:00 11.4 4 Sudoeste 6 Sur 0 -- -- 79
2017-09-15 13:00:00 10.9 2 Nordeste 4 Este 0 -- -- 81
2017-09-15 12:00:00 10.3 0 Calma 5 Norte 0 -- -- 81
2017-09-15 11:00:00 9.5 3 Este 6 Nordeste 0 -- -- 84
2017-09-15 10:00:00 8.8 2 Nordeste 4 Norte 0 -- -- 95
2017-09-15 09:00:00 8.3 0 Calma 7 Sudoeste 0 -- -- 96
2017-09-15 08:00:00 8.6 3 Este 10 Nordeste 0.2 -- -- 94
2017-09-15 07:00:00 8.8 2 Nordeste 5 Nordeste 1 -- -- 97
2017-09-15 06:00:00 9.1 2 Este 5 Nordeste 0.8 -- -- 96
2017-09-15 05:00:00 9.2 0 Calma 5 Nordeste 0 -- -- 96
2017-09-15 04:00:00 9.2 0 Calma 7 Este 0 -- -- 96
2017-09-15 03:00:00 9.3 0 Calma 5 Nordeste 0.2 -- -- 96
2017-09-15 02:00:00 9.6 2 Norte 6 Nordeste 0 -- -- 93
2017-09-15 01:00:00 10 2 Nordeste 7 Nordeste 0 -- -- 92
2017-09-15 00:00:00 10.2 3 Nordeste 5 Norte 0 -- -- 91
2017-09-14 23:00:00 10.4 0 Calma 5 Norte 0 -- -- 90
2017-09-14 22:00:00 10.7 2 Norte 5 Nordeste 0 -- -- 89
2017-09-14 21:00:00 11.1 2 Nordeste 5 Nordeste 0 -- -- 84
2017-09-14 20:00:00 12.1 0 Calma 8 Nordeste 0 -- -- 78
2017-09-14 19:00:00 12.4 5 Norte 18 Norte 0 -- -- 76
2017-09-14 18:00:00 12 5 Norte 20 Norte 0 -- -- 78
2017-09-14 17:00:00 13.2 10 Norte 21 Norte 0 -- -- 79
2017-09-14 16:00:00 14.3 4 Norte 21 Este 0 -- -- 72
2017-09-14 15:00:00 13 10 Norte 27 Norte 0 -- -- 82
2017-09-14 14:00:00 12.4 10 Norte 30 Norte 0 -- -- 86
2017-09-14 13:00:00 12.5 9 Norte 24 Norte 0.2 -- -- 89
2017-09-14 12:00:00 12.6 8 Norte 28 Norte 1 -- -- 90
2017-09-14 11:00:00 14.8 0 Calma 5 Sur 0 -- -- 91
2017-09-14 10:00:00 13.2 0 Calma 6 Sudoeste 0 -- -- 95
2017-09-14 09:00:00 -- 0 Calma 3 Nordeste 0 -- -- --
2017-09-14 08:00:00 11.9 0 Calma 8 Sudoeste 0 -- -- 95
2017-09-14 07:00:00 11.5 5 Sudoeste 12 Sudoeste 0 -- -- 97
2017-09-14 06:00:00 10.9 5 Sudoeste 12 Sudoeste 0 -- -- 99
2017-09-14 05:00:00 10.3 3 Sudoeste 9 Sudoeste 0 -- -- 98
2017-09-14 04:00:00 11.2 2 Este 8 Sudoeste 0 -- -- 96
2017-09-14 03:00:00 12.4 2 Oeste 12 Sudoeste 0 -- -- 95
2017-09-14 02:00:00 12.4 4 Sur 10 Sudoeste 0 -- -- 98
2017-09-14 01:00:00 12.1 4 Sudoeste 9 Sudoeste 0 -- -- 98
2017-09-14 00:00:00 13.2 2 Sur 10 Sur 0 -- -- 95
2017-09-13 23:00:00 14 9 Sudoeste 15 Oeste 0 -- -- 94
2017-09-13 22:00:00 14.6 8 Sudoeste 14 Sur 0 -- -- 94
2017-09-13 21:00:00 15.4 3 Sudoeste 6 Sudoeste 0 -- -- 91
2017-09-13 20:00:00 17.2 0 Calma 3 Sudoeste 0 -- -- 87
2017-09-13 19:00:00 19.8 3 Sudeste 13 Norte 0 -- -- 77
2017-09-13 18:00:00 23.1 8 Norte 23 Norte 0 -- -- 61
2017-09-13 17:00:00 23.5 10 Norte 26 Norte 0 -- -- 58
2017-09-13 16:00:00 23.6 13 Norte 27 Norte 0 -- -- 56
2017-09-13 15:00:00 23.6 9 Norte 20 Nordeste 0 -- -- 51
2017-09-13 14:00:00 22.7 10 Norte 18 Norte 0 -- -- 54
2017-09-13 13:00:00 21.2 5 Nordeste 10 Nordeste 0 -- -- 54
2017-09-13 12:00:00 18.2 3 Nordeste 6 Nordeste 0 -- -- 67
2017-09-13 11:00:00 13.7 2 Sudeste 4 Sudeste 0 -- -- 79
2017-09-13 10:00:00 8 0 Calma 5 Sudoeste 0 -- -- 96
2017-09-13 09:00:00 8 2 Nordeste 12 Oeste 0 -- -- 94
2017-09-13 08:00:00 8.3 3 Este 14 Sur 0 -- -- 91
2017-09-13 07:00:00 8.7 9 Sudoeste 21 Sudoeste 0 -- -- 89
2017-09-13 06:00:00 8.6 13 Sudoeste 19 Oeste 0 -- -- 91
2017-09-13 05:00:00 7.9 4 Sudoeste 9 Sudoeste 0 -- -- 95
2017-09-13 04:00:00 8.8 3 Sur 16 Sudoeste 0 -- -- 93
2017-09-13 03:00:00 9.4 6 Sudoeste 17 Sudoeste 0 -- -- 92
2017-09-13 02:00:00 9.3 3 Sur 9 Sudoeste 0 -- -- 97
2017-09-13 01:00:00 8.9 0 Calma 12 Sur 0 -- -- 96
2017-09-13 00:00:00 9.6 8 Sur 14 Sudoeste 0 -- -- 94
2017-09-12 23:00:00 10.1 7 Sudoeste 14 Sudoeste 0 -- -- 92
2017-09-12 22:00:00 10.7 9 Sudoeste 15 Sudoeste 0 -- -- 92
2017-09-12 21:00:00 12.2 0 Calma 5 Sudoeste 0 -- -- 88
2017-09-12 20:00:00 14.6 0 Calma 5 Nordeste 0 -- -- 81
2017-09-12 19:00:00 16.2 4 Nordeste 15 Norte 0 -- -- 66
2017-09-12 18:00:00 16.9 6 Norte 18 Nordeste 0 -- -- 62
2017-09-12 17:00:00 17.4 8 Norte 18 Nordeste 0 -- -- 59
2017-09-12 16:00:00 18.3 6 Norte 18 Norte 0 -- -- 54
2017-09-12 15:00:00 18.2 10 Norte 23 Norte 0 -- -- 57
2017-09-12 14:00:00 18.3 8 Norte 15 Nordeste 0 -- -- 56
2017-09-12 13:00:00 16.8 3 Norte 9 Norte 0 -- -- 65
2017-09-12 12:00:00 14 2 Norte 7 Noroeste 0 -- -- 78
2017-09-12 11:00:00 12.6 2 Noroeste 6 Noroeste 0 -- -- 85
2017-09-12 10:00:00 11.4 0 Calma 5 Sudoeste 0 -- -- 94
2017-09-12 09:00:00 10.8 2 Nordeste 5 Norte 0.2 -- -- 96
2017-09-12 08:00:00 10.3 4 Este 6 Este 0 -- -- 98
2017-09-12 07:00:00 10.6 3 Este 10 Norte 0.2 -- -- 94
2017-09-12 06:00:00 10.8 3 Nordeste 5 Nordeste 0.4 -- -- 98
2017-09-12 05:00:00 10.9 0 Calma 5 Sudeste 0.2 -- -- 97
2017-09-12 04:00:00 11 2 Nordeste 4 Sur 0 -- -- 96
2017-09-12 03:00:00 11.5 0 Calma 4 Norte 0.2 -- -- 96
2017-09-12 02:00:00 12 2 Sudeste 9 Este 0 -- -- 92
2017-09-12 01:00:00 12.3 2 Este 7 Norte 0 -- -- 89
2017-09-12 00:00:00 12.2 0 Calma 4 Nordeste 0 -- -- 94
2017-09-11 23:00:00 12.4 0 Calma 6 Sudoeste 0 -- -- 93
2017-09-11 22:00:00 12.5 0 Calma 3 Nordeste 0 -- -- 93
2017-09-11 21:00:00 12.7 0 Calma 4 Norte 0 -- -- 91
2017-09-11 20:00:00 13.3 2 Sur 17 Norte 0 -- -- 84
2017-09-11 19:00:00 13.5 5 Norte 22 Norte 0 -- -- 85
2017-09-11 18:00:00 14.5 7 Norte 21 Norte 0 -- -- 83
2017-09-11 17:00:00 14.8 11 Norte 26 Norte 0 -- -- 84
2017-09-11 16:00:00 16 10 Nordeste 25 Nordeste 0 -- -- 81
2017-09-11 15:00:00 15.6 12 Norte 33 Nordeste 0.2 -- -- 86
2017-09-11 14:00:00 15.1 7 Norte 26 Norte 1.4 -- -- 89
2017-09-11 13:00:00 15.6 6 Norte 17 Norte 0.4 -- -- 90
2017-09-11 12:00:00 15.6 3 Norte 8 Norte 0 -- -- 88
2017-09-11 11:00:00 13.5 0 Calma 7 Sudoeste 0.4 -- -- 95
2017-09-11 10:00:00 12.5 4 Sudoeste 8 Sudoeste 0.2 -- -- 96
2017-09-11 09:00:00 11.5 2 Nordeste 11 Nordeste 0.2 -- -- 97
2017-09-11 08:00:00 11.2 3 Oeste 6 Oeste 0 -- -- 95
2017-09-11 07:00:00 11 2 Nordeste 7 Nordeste 0 -- -- 94
2017-09-11 06:00:00 10.8 8 Sudoeste 12 Sudoeste 0 -- -- 94
2017-09-11 05:00:00 10.8 3 Sur 10 Sudoeste 0 -- -- 92
2017-09-11 04:00:00 10.6 4 Sudoeste 10 Sudoeste 0 -- -- 93
2017-09-11 03:00:00 9.9 5 Sur 8 Sur 0 -- -- 96
2017-09-11 02:00:00 10.6 0 Calma 8 Oeste 0 -- -- 93
2017-09-11 01:00:00 11.5 3 Sudoeste 23 Sudoeste 0 -- -- 88
2017-09-11 00:00:00 11.2 12 Sudoeste 16 Sudoeste 0 -- -- 91
2017-09-10 23:00:00 10.9 3 Sudoeste 6 Sudoeste 0 -- -- 95
2017-09-10 22:00:00 11.1 0 Calma 8 Sudoeste 0 -- -- 94
2017-09-10 21:00:00 11.5 4 Este 5 Este 0 -- -- 91
2017-09-10 20:00:00 12.1 0 Calma 6 Nordeste 0 -- -- 92
2017-09-10 19:00:00 13.1 2 Este 6 Nordeste 0 -- -- 88
2017-09-10 18:00:00 13 4 Nordeste 10 Nordeste 0 -- -- 80
2017-09-10 17:00:00 12.9 4 Nordeste 14 Nordeste 0 -- -- 85
2017-09-10 16:00:00 13.2 4 Nordeste 8 Nordeste 0 -- -- 83
2017-09-10 15:00:00 12.4 3 Sudeste 17 Norte 1 -- -- 87
2017-09-10 14:00:00 13.6 4 Nordeste 9 Nordeste 0 -- -- 76
2017-09-10 13:00:00 12.4 3 Norte 15 Sudoeste 0 -- -- 84
2017-09-10 12:00:00 12.2 8 Sur 15 Sur 0 -- -- 79
2017-09-10 11:00:00 10 3 Nordeste 5 Norte 0.6 -- -- 95
2017-09-10 10:00:00 9.1 2 Nordeste 5 Nordeste 0.4 -- -- 97
2017-09-10 09:00:00 8.6 2 Norte 5 Norte 0.4 -- -- 98
2017-09-10 08:00:00 8.4 2 Oeste 5 Nordeste 1 -- -- 98
2017-09-10 07:00:00 8.4 4 Nordeste 6 Nordeste 0 -- -- 97
2017-09-10 06:00:00 8.6 3 Nordeste 6 Nordeste 0.4 -- -- 96
2017-09-10 05:00:00 8.7 0 Calma 4 Noroeste 0 -- -- 96
2017-09-10 04:00:00 8.8 2 Nordeste 7 Nordeste 0 -- -- 95
2017-09-10 03:00:00 9 0 Calma 15 Norte 0 -- -- 94
2017-09-10 02:00:00 9.1 2 Noroeste 12 Sudoeste 0.2 -- -- 95
2017-09-10 01:00:00 9.2 9 Sudoeste 14 Sudoeste 0 -- -- 93
2017-09-10 00:00:00 9.9 3 Sur 15 Este 0 -- -- 90
2017-09-09 23:00:00 10.3 6 Norte 20 Nordeste 0 -- -- 84
2017-09-09 22:00:00 10 2 Sur 4 Sudoeste 0 -- -- 93
2017-09-09 21:00:00 10.3 3 Sur 8 Nordeste 0 -- -- 93
2017-09-09 20:00:00 11.1 0 Calma 9 Sur 0 -- -- 92
2017-09-09 19:00:00 12 4 Norte 11 Nordeste 0.2 -- -- 80
2017-09-09 18:00:00 12.9 4 Sur 12 Sur 0.2 -- -- 85
2017-09-09 17:00:00 13.7 4 Norte 31 Norte 0 -- -- 75
2017-09-09 16:00:00 15 8 Norte 15 Nordeste 0 -- -- 68
2017-09-09 15:00:00 15.5 10 Sudoeste 18 Sudoeste 0 -- -- 73
2017-09-09 14:00:00 12.8 3 Sudoeste 9 Oeste 0.2 -- -- 88
2017-09-09 13:00:00 11.6 4 Sudoeste 7 Oeste 0.2 -- -- 93
2017-09-09 12:00:00 11.3 3 Sur 15 Nordeste 0.6 -- -- 92
2017-09-09 11:00:00 11.1 8 Norte 23 Norte 4 -- -- 89
2017-09-09 10:00:00 11 4 Sur 10 Sudeste 0.8 -- -- 95
2017-09-09 09:00:00 11.2 3 Nordeste 6 Nordeste 0 -- -- 89
2017-09-09 08:00:00 10.3 2 Sudoeste 9 Sudoeste 0 -- -- 92
2017-09-09 07:00:00 9.3 5 Sudoeste 11 Sudoeste 0 -- -- 96
2017-09-09 06:00:00 9 0 Calma 9 Sudoeste 0 -- -- 96
2017-09-09 05:00:00 8.8 0 Calma 7 Sur 0 -- -- 96
2017-09-09 04:00:00 9.4 0 Calma 8 Sudoeste 0 -- -- 96
2017-09-09 03:00:00 9.6 4 Sudoeste 6 Sudoeste 0 -- -- 95
2017-09-09 02:00:00 10.2 2 Noroeste 8 Sudoeste 0 -- -- 94
2017-09-09 01:00:00 11.3 4 Este 24 Sudoeste 0 -- -- 90
2017-09-09 00:00:00 11.7 3 Sur 16 Sur 0 -- -- 88
2017-09-08 23:00:00 12 10 Sudoeste 15 Sudoeste 0 -- -- 90
2017-09-08 22:00:00 12.5 0 Calma 8 Nordeste 0 -- -- 88
2017-09-08 21:00:00 13.9 2 Nordeste 9 Sudoeste 0 -- -- 83
2017-09-08 20:00:00 -- 3 Sur 16 Norte 0 -- -- --
2017-09-08 19:00:00 19 5 Norte 24 Norte 0 -- -- 61
2017-09-08 18:00:00 20.8 11 Norte 24 Norte 0 -- -- 55
2017-09-08 17:00:00 21.9 9 Norte 23 Norte 0 -- -- 51
2017-09-08 16:00:00 22.4 10 Norte 19 Norte 0 -- -- 47
2017-09-08 15:00:00 21.7 8 Norte 16 Norte 0 -- -- 47
2017-09-08 14:00:00 20.1 6 Norte 14 Norte 0 -- -- 53
2017-09-08 13:00:00 18.5 5 Norte 13 Nordeste 0 -- -- 57
2017-09-08 12:00:00 16.1 6 Norte 13 Norte 0 -- -- 60
2017-09-08 11:00:00 13.1 3 Nordeste 5 Nordeste 0 -- -- 74
2017-09-08 10:00:00 7.5 2 Sur 4 Sudoeste 0 -- -- 94
2017-09-08 09:00:00 6.6 2 Sur 8 Sudoeste 0 -- -- 94
2017-09-08 08:00:00 6.8 0 Calma 21 Sudoeste 0 -- -- 91
2017-09-08 07:00:00 7.7 14 Sudoeste 24 Sudoeste 0 -- -- 88
2017-09-08 06:00:00 8.4 11 Sudoeste 19 Sudoeste 0 -- -- 88
2017-09-08 05:00:00 7.9 6 Sudoeste 11 Sudoeste 0 -- -- 94
2017-09-08 04:00:00 8.5 7 Sudoeste 18 Sudoeste 0 -- -- 91
2017-09-08 03:00:00 9.5 7 Sudoeste 12 Oeste 0 -- -- 91
2017-09-08 02:00:00 10.3 5 Sudoeste 20 Sudoeste 0 -- -- 88
2017-09-08 01:00:00 11.7 10 Sudoeste 14 Sudoeste 0 -- -- 85
2017-09-08 00:00:00 13 10 Sur 17 Sur 0 -- -- 79
2017-09-07 23:00:00 13 9 Sudoeste 13 Sudoeste 0 -- -- 81
2017-09-07 22:00:00 13.6 0 Calma 3 Sur 0 -- -- 82
2017-09-07 21:00:00 14.3 2 Este 6 Este 0 -- -- 77
2017-09-07 20:00:00 15 4 Norte 13 Norte 0 -- -- 71
2017-09-07 19:00:00 15.7 7 Norte 23 Norte 0 -- -- 68
2017-09-07 18:00:00 16.9 12 Norte 26 Norte 0 -- -- 65
2017-09-07 17:00:00 17.9 12 Norte 28 Norte 0 -- -- 63
2017-09-07 16:00:00 18.7 14 Norte 31 Norte 0 -- -- 61
2017-09-07 15:00:00 19 13 Norte 32 Norte 0 -- -- 62
2017-09-07 14:00:00 19.2 11 Norte 20 Norte 0 -- -- 61
2017-09-07 13:00:00 18.4 9 Norte 17 Norte 0 -- -- 60
2017-09-07 12:00:00 -- 4 Nordeste 13 Norte 0 -- -- --
2017-09-07 11:00:00 13.8 4 Norte 8 Norte 0 -- -- 79
2017-09-07 10:00:00 12.8 3 Nordeste 12 Norte 0 -- -- 83
2017-09-07 09:00:00 12.3 3 Norte 11 Norte 0 -- -- 88
2017-09-07 08:00:00 12.3 0 Calma 7 Nordeste 0 -- -- 88
2017-09-07 07:00:00 12.7 0 Calma 8 Nordeste 0 -- -- 89
2017-09-07 06:00:00 13 2 Nordeste 8 Nordeste 0 -- -- 86
2017-09-07 05:00:00 13.4 2 Nordeste 4 Nordeste 0 -- -- 87
2017-09-07 04:00:00 13.6 0 Calma 7 Norte 0 -- -- 85
2017-09-07 03:00:00 14 0 Calma 5 Norte 0 -- -- 84
2017-09-07 02:00:00 14.4 2 Norte 9 Nordeste 0 -- -- 84
2017-09-07 01:00:00 14.5 0 Calma 4 Nordeste 0 -- -- 86
2017-09-07 00:00:00 14.6 0 Calma 2 Norte 0 -- -- 87
2017-09-06 23:00:00 14.9 0 Calma 4 Sur 0 -- -- 84
2017-09-06 22:00:00 15.4 0 Calma 9 Nordeste 0 -- -- 80
2017-09-06 21:00:00 15.5 3 Norte 14 Norte 0 -- -- 78
2017-09-06 20:00:00 15.8 7 Nordeste 20 Norte 0 -- -- 80
2017-09-06 19:00:00 17 7 Norte 21 Norte 0 -- -- 79
2017-09-06 18:00:00 17.9 9 Norte 22 Norte 0 -- -- 78
2017-09-06 17:00:00 19.2 8 Norte 20 Norte 0 -- -- 72
2017-09-06 16:00:00 19.7 7 Norte 18 Norte 0 -- -- 71
2017-09-06 15:00:00 19.4 8 Norte 15 Norte 0 -- -- 73
2017-09-06 14:00:00 19.6 3 Norte 20 Nordeste 0 -- -- 71
2017-09-06 13:00:00 19.1 10 Norte 20 Norte 0 -- -- 73
2017-09-06 12:00:00 19.2 8 Norte 15 Norte 0 -- -- 73
2017-09-06 11:00:00 17.6 6 Norte 13 Norte 0 -- -- 82
2017-09-06 10:00:00 16.3 3 Norte 8 Nordeste 0 -- -- 87
2017-09-06 09:00:00 15.7 0 Calma 5 Nordeste 0 -- -- 90
2017-09-06 08:00:00 15.4 3 Nordeste 9 Nordeste 0 -- -- 91
2017-09-06 07:00:00 15.7 4 Nordeste 15 Nordeste 0 -- -- 88
2017-09-06 06:00:00 15.9 4 Nordeste 13 Norte 0 -- -- 87
2017-09-06 05:00:00 16.1 3 Norte 17 Nordeste 0 -- -- 87
2017-09-06 04:00:00 17 6 Nordeste 12 Nordeste 0 -- -- 91
2017-09-06 03:00:00 17.6 0 Calma 5 Nordeste 0 -- -- 91
2017-09-06 02:00:00 17.7 0 Calma 6 Nordeste 0 -- -- 92
2017-09-06 01:00:00 17.9 2 Norte 8 Nordeste 0 -- -- 92
2017-09-06 00:00:00 18.2 3 Norte 13 Norte 0 -- -- 90
2017-09-05 23:00:00 18.9 5 Norte 14 Norte 0 -- -- 84
2017-09-05 22:00:00 19.3 4 Nordeste 16 Norte 0 -- -- 83
2017-09-05 21:00:00 20 5 Norte 21 Nordeste 0 -- -- 79
2017-09-05 20:00:00 21.2 8 Norte 24 Nordeste 0 -- -- 75
2017-09-05 19:00:00 22.5 8 Norte 26 Nordeste 0 -- -- 72
2017-09-05 18:00:00 24 12 Norte 27 Nordeste 0 -- -- 63
2017-09-05 17:00:00 26.3 12 Norte 28 Norte 0 -- -- 51
2017-09-05 16:00:00 27.7 11 Norte 23 Norte 0 -- -- 45
2017-09-05 15:00:00 27 11 Norte 25 Nordeste 0 -- -- 47
2017-09-05 14:00:00 26.8 10 Norte 24 Norte 0 -- -- 45
2017-09-05 13:00:00 24.9 4 Nordeste 15 Norte 0 -- -- 57
2017-09-05 12:00:00 22.2 3 Este 9 Nordeste 0 -- -- 65
2017-09-05 11:00:00 -- 0 Calma 4 Este 0 -- -- --
2017-09-05 10:00:00 12.6 0 Calma 6 Sudoeste 0 -- -- 100
2017-09-05 09:00:00 11.8 0 Calma 7 Sudoeste 0 -- -- 98
2017-09-05 08:00:00 11.9 4 Sudoeste 16 Sudoeste 0 -- -- 98
2017-09-05 07:00:00 11.5 4 Sudoeste 9 Sudoeste 0 -- -- 99
2017-09-05 06:00:00 11.6 4 Sur 7 Sudoeste 0 -- -- 98
2017-09-05 05:00:00 12.1 3 Oeste 6 Sur 0 -- -- 97
2017-09-05 04:00:00 13 2 Sudoeste 14 Sudoeste 0 -- -- 97
2017-09-05 03:00:00 13.7 5 Sudoeste 10 Sudoeste 0 -- -- 96
2017-09-05 02:00:00 14.7 3 Sur 13 Sudoeste 0 -- -- 96
2017-09-05 01:00:00 15.9 5 Sur 10 Sudoeste 0 -- -- 95
2017-09-05 00:00:00 16.4 2 Sudoeste 4 Sudoeste 0 -- -- 93
2017-09-04 23:00:00 17 0 Calma 3 Nordeste 0 -- -- 92
2017-09-04 22:00:00 17.1 0 Calma 3 Norte 0 -- -- 91
2017-09-04 21:00:00 18 0 Calma 6 Este 0 -- -- 86
2017-09-04 20:00:00 19.7 0 Calma 10 Norte 0 -- -- 79
2017-09-04 19:00:00 20.3 6 Norte 17 Norte 0 -- -- 75
2017-09-04 18:00:00 20.9 7 Norte 20 Norte 0 -- -- 72
2017-09-04 17:00:00 21.5 7 Norte 22 Norte 0 -- -- 68
2017-09-04 16:00:00 22.2 10 Norte 25 Norte 0 -- -- 65
2017-09-04 15:00:00 23.2 13 Norte 25 Norte 0 -- -- 59
2017-09-04 14:00:00 23.6 9 Norte 22 Nordeste 0 -- -- 59
2017-09-04 13:00:00 -- 6 Norte 14 Nordeste 0 -- -- --
2017-09-04 12:00:00 20.1 5 Nordeste 11 Este 0 -- -- 73
2017-09-04 11:00:00 18.1 3 Este 9 Nordeste 0 -- -- 85
2017-09-04 10:00:00 15.1 2 Este 8 Nordeste 0 -- -- 93
2017-09-04 09:00:00 14.4 5 Sur 19 Sudoeste 0 -- -- 96
2017-09-04 08:00:00 13.3 13 Sudoeste 18 Sudoeste 0.2 -- -- 98
2017-09-04 07:00:00 13.1 3 Sudoeste 5 Noroeste 1 -- -- 98
2017-09-04 06:00:00 13.2 2 Sudoeste 14 Sudoeste 0.8 -- -- 97
2017-09-04 05:00:00 13.2 7 Sudeste 27 Sudoeste 0.8 -- -- 95
2017-09-04 04:00:00 12.7 3 Nordeste 6 Sudoeste 0.4 -- -- 97
2017-09-04 03:00:00 12.7 3 Sudeste 6 Sudoeste 0.4 -- -- 94
2017-09-04 02:00:00 12.4 0 Calma 6 Oeste 0 -- -- 93
2017-09-04 01:00:00 12.4 0 Calma 3 Sur 0 -- -- 91
2017-09-04 00:00:00 13.6 0 Calma 12 Sudoeste 0 -- -- 87
2017-09-03 23:00:00 14.1 6 Sudoeste 14 Sudoeste 0 -- -- 82
2017-09-03 22:00:00 14.8 6 Sudoeste 10 Sudoeste 0 -- -- 79
2017-09-03 21:00:00 15.9 0 Calma 5 Sur 0 -- -- 77
2017-09-03 20:00:00 17 2 Sur 4 Sudoeste 0 -- -- 70
2017-09-03 19:00:00 18.3 0 Calma 10 Nordeste 0 -- -- 67
2017-09-03 18:00:00 19.4 5 Norte 18 Nordeste 0 -- -- 53
2017-09-03 17:00:00 19.8 10 Norte 23 Norte 0 -- -- 50
2017-09-03 16:00:00 20.7 5 Nordeste 17 Norte 0 -- -- 49
2017-09-03 15:00:00 21.3 9 Norte 18 Norte 0 -- -- 41
2017-09-03 14:00:00 19.2 4 Sudoeste 14 Sudoeste 0 -- -- 47
2017-09-03 13:00:00 16.2 2 Noroeste 6 Norte 0 -- -- 63
2017-09-03 12:00:00 14.4 5 Nordeste 14 Sudoeste 0 -- -- 67
2017-09-03 11:00:00 12.3 2 Oeste 11 Oeste 0 -- -- 74
2017-09-03 10:00:00 10 3 Sudoeste 7 Noroeste 0 -- -- 82
2017-09-03 09:00:00 7.4 3 Sudoeste 10 Sudoeste 0 -- -- 92
2017-09-03 08:00:00 5.5 3 Sudoeste 6 Sudoeste 0 -- -- 96
2017-09-03 07:00:00 5.4 0 Calma 5 Sudoeste 0 -- -- 96
2017-09-03 06:00:00 5.9 0 Calma 8 Sudoeste 0 -- -- 95
2017-09-03 05:00:00 6.6 2 Sur 9 Sudoeste 0 -- -- 95
2017-09-03 04:00:00 6.6 4 Sur 8 Sur 0 -- -- 98
2017-09-03 03:00:00 6.8 0 Calma 5 Sudoeste 0 -- -- 96
2017-09-03 02:00:00 7.6 3 Sur 5 Sudoeste 0 -- -- 95
2017-09-03 01:00:00 8.5 0 Calma 16 Sudoeste 0 -- -- 93
2017-09-03 00:00:00 9.2 12 Sudoeste 15 Sudoeste 0 -- -- 92
2017-09-02 23:00:00 10.1 10 Sudoeste 14 Sudoeste 0 -- -- 90
2017-09-02 22:00:00 11.3 5 Sudoeste 13 Sudoeste 0 -- -- 86
2017-09-02 21:00:00 13.2 0 Calma 3 Sur 0 -- -- 82
2017-09-02 20:00:00 15.6 0 Calma 13 Norte 0 -- -- 71
2017-09-02 19:00:00 16.7 4 Norte 15 Nordeste 0 -- -- 59
2017-09-02 18:00:00 17 5 Norte 24 Norte 0 -- -- 61
2017-09-02 17:00:00 17.5 9 Norte 26 Norte 0 -- -- 57
2017-09-02 16:00:00 17.2 13 Norte 27 Nordeste 0 -- -- 56
2017-09-02 15:00:00 17.8 13 Norte 28 Norte 0 -- -- 54
2017-09-02 14:00:00 17.8 12 Norte 22 Norte 0 -- -- 52
2017-09-02 13:00:00 17.1 9 Norte 21 Norte 0 -- -- 54
2017-09-02 12:00:00 15 8 Norte 14 Norte 0 -- -- 59
2017-09-02 11:00:00 12.9 3 Norte 7 Norte 0 -- -- 75
2017-09-02 10:00:00 10.7 2 Norte 6 Sudoeste 0 -- -- 91
2017-09-02 09:00:00 9.7 4 Sudoeste 8 Sudoeste 0 -- -- 97
2017-09-02 08:00:00 9.4 3 Sur 5 Sudoeste 0 -- -- 95
2017-09-02 07:00:00 9.6 0 Calma 5 Sur 0 -- -- 94
2017-09-02 06:00:00 9.5 0 Calma 13 Sudoeste 0 -- -- 94
2017-09-02 05:00:00 9.1 6 Sudoeste 13 Sudoeste 0 -- -- 96
2017-09-02 04:00:00 8.8 4 Sudoeste 7 Sudoeste 0 -- -- 96
2017-09-02 03:00:00 9.9 0 Calma 6 Este 0 -- -- 94
2017-09-02 02:00:00 10.3 2 Nordeste 7 Oeste 0 -- -- 97
2017-09-02 01:00:00 9.6 0 Calma 4 Oeste 0 -- -- 96
2017-09-02 00:00:00 10.7 0 Calma 5 Sudoeste 0 -- -- 94
2017-09-01 23:00:00 12.1 2 Sur 5 Sudoeste 0 -- -- 93
2017-09-01 22:00:00 13.5 0 Calma 13 Nordeste 0 -- -- 87
2017-09-01 21:00:00 14.3 5 Nordeste 14 Norte 0 -- -- 75
2017-09-01 20:00:00 14.6 4 Este 8 Noroeste 0 -- -- 73
2017-09-01 19:00:00 15.2 3 Norte 11 Noroeste 0 -- -- 69
2017-09-01 18:00:00 15.7 4 Norte 23 Norte 0 -- -- 63
2017-09-01 17:00:00 16.6 8 Norte 24 Norte 0 -- -- 62
2017-09-01 16:00:00 18 10 Norte 24 Nordeste 0 -- -- 55
2017-09-01 15:00:00 20 12 Norte 25 Norte 0 -- -- 46
2017-09-01 14:00:00 19.5 9 Norte 19 Nordeste 0.6 -- -- 50
2017-09-01 13:00:00 18 8 Norte 15 Norte 0 -- -- 56
2017-09-01 12:00:00 16.6 3 Norte 17 Norte 0 -- -- 63
2017-09-01 11:00:00 14.7 2 Noroeste 6 Norte 0 -- -- 75
2017-09-01 10:00:00 13.2 3 Norte 5 Norte 0 -- -- 83
2017-09-01 09:00:00 12.3 0 Calma 3 Norte 0 -- -- 91
2017-09-01 08:00:00 11.6 0 Calma 3 Sudoeste 0 -- -- 95
2017-09-01 07:00:00 11.6 0 Calma 3 Sudeste 0 -- -- 94
2017-09-01 06:00:00 11.7 0 Calma 3 Este 0 -- -- 94
2017-09-01 05:00:00 11.9 0 Calma 5 Este 0 -- -- 94
2017-09-01 04:00:00 12 0 Calma 3 Nordeste 0 -- -- 92
2017-09-01 03:00:00 12.2 0 Calma 4 Sur 0 -- -- 90
2017-09-01 02:00:00 12.4 2 Nordeste 4 Este 0 -- -- 87
2017-09-01 01:00:00 12.7 0 Calma 3 Norte 0 -- -- 89
2017-09-01 00:00:00 12.9 0 Calma 8 Oeste 0 -- -- 85
2017-08-31 23:00:00 13.1 0 Calma 4 Sudeste 0 -- -- 86
2017-08-31 22:00:00 13.4 2 Nordeste 12 Nordeste 0 -- -- 85
2017-08-31 21:00:00 13.8 3 Norte 5 Nordeste 0 -- -- 83
2017-08-31 20:00:00 14.2 3 Nordeste 12 Nordeste 0 -- -- 83
2017-08-31 19:00:00 14.6 6 Nordeste 15 Norte 0 -- -- 80
2017-08-31 18:00:00 15 6 Norte 15 Norte 0 -- -- 76
2017-08-31 17:00:00 16 5 Oeste 18 Nordeste 0 -- -- 78
2017-08-31 16:00:00 16 9 Norte 19 Nordeste 0 -- -- 75
2017-08-31 15:00:00 16 10 Norte 19 Norte 0 -- -- 73
2017-08-31 14:00:00 15.5 5 Norte 15 Norte 0 -- -- 80
2017-08-31 13:00:00 14.3 4 Nordeste 9 Norte 0 -- -- 86
2017-08-31 12:00:00 13 2 Noroeste 12 Este 1.2 -- -- 93
2017-08-31 11:00:00 12.6 4 Nordeste 10 Este 1.4 -- -- 92
2017-08-31 10:00:00 12.7 2 Oeste 8 Norte 1.2 -- -- 95
2017-08-31 09:00:00 12.2 2 Nordeste 19 Norte 1.4 -- -- 93
2017-08-31 08:00:00 12.2 7 Norte 21 Norte 0.6 -- -- 93
2017-08-31 07:00:00 13.1 8 Norte 24 Norte 0 -- -- 90
2017-08-31 06:00:00 14.1 0 Calma 3 Sur 0.2 -- -- 97
2017-08-31 05:00:00 14.1 0 Calma 6 Nordeste 0 -- -- 97
2017-08-31 04:00:00 14.2 0 Calma 9 Norte 1.6 -- -- 95
2017-08-31 03:00:00 14.8 4 Nordeste 15 Nordeste 0.6 -- -- 90
2017-08-31 02:00:00 15.4 5 Norte 22 Norte 0 -- -- 86
2017-08-31 01:00:00 16 10 Norte 23 Nordeste 0 -- -- 84
2017-08-31 00:00:00 16.3 10 Norte 32 Norte 0 -- -- 85
2017-08-30 23:00:00 18.8 4 Nordeste 10 Norte 0 -- -- 90
2017-08-30 22:00:00 19.1 2 Oeste 12 Norte 0 -- -- 88
2017-08-30 21:00:00 19.9 3 Noroeste 18 Sudoeste 0 -- -- 84
2017-08-30 20:00:00 20.6 4 Sudeste 7 Sudeste 0 -- -- 84
2017-08-30 19:00:00 21.8 3 Norte 13 Norte 0 -- -- 73
2017-08-30 18:00:00 22.8 8 Norte 18 Norte 0 -- -- 70
2017-08-30 17:00:00 23 8 Norte 18 Nordeste 0 -- -- 68
2017-08-30 16:00:00 23.3 7 Norte 18 Norte 0 -- -- 66
2017-08-30 15:00:00 23.9 7 Nordeste 15 Norte 0 -- -- 62
2017-08-30 14:00:00 26.1 2 Noroeste 36 Sudoeste 0 -- -- 49
2017-08-30 13:00:00 28 15 Oeste 32 Oeste 0 -- -- 38
2017-08-30 12:00:00 24.1 7 Nordeste 15 Norte 0 -- -- 60
2017-08-30 11:00:00 21.4 3 Nordeste 5 Nordeste 0 -- -- 72
2017-08-30 10:00:00 17.6 0 Calma 6 Sudeste 0 -- -- 89
2017-08-30 09:00:00 15.9 0 Calma 5 Nordeste 0 -- -- 90
2017-08-30 08:00:00 15.6 3 Nordeste 8 Sudeste 0 -- -- 88
2017-08-30 07:00:00 15.1 3 Sur 6 Oeste 0 -- -- 86
2017-08-30 06:00:00 15.7 2 Oeste 9 Sur 0 -- -- 84
2017-08-30 05:00:00 15.7 4 Nordeste 12 Norte 0 -- -- 84
2017-08-30 04:00:00 15 2 Este 10 Norte 0 -- -- 88
2017-08-30 03:00:00 14.6 5 Sudoeste 9 Oeste 0 -- -- 89
2017-08-30 02:00:00 14.9 0 Calma 11 Sudoeste 0 -- -- 88
2017-08-30 01:00:00 15.9 9 Sudoeste 15 Sudoeste 0 -- -- 84
2017-08-30 00:00:00 16.8 0 Calma 13 Sur 0 -- -- 83
2017-08-29 23:00:00 17.5 6 Sudoeste 11 Sudoeste 0 -- -- 83
2017-08-29 22:00:00 18.6 2 Sur 10 Sudoeste 0 -- -- 86
2017-08-29 21:00:00 19.8 2 Sur 7 Sur 0 -- -- 83
2017-08-29 20:00:00 22 0 Calma 7 Nordeste 0 -- -- 81
2017-08-29 19:00:00 23.6 2 Nordeste 9 Nordeste 0 -- -- 75
2017-08-29 18:00:00 24 5 Nordeste 18 Norte 0 -- -- 71
2017-08-29 17:00:00 24.2 6 Norte 14 Norte 0 -- -- 70
2017-08-29 16:00:00 24 5 Norte 14 Norte 0 -- -- 72
2017-08-29 15:00:00 24.4 9 Norte 17 Norte 0 -- -- 68
2017-08-29 14:00:00 24.1 7 Norte 17 Norte 0 -- -- 69
2017-08-29 13:00:00 24.4 8 Norte 18 Norte 0 -- -- 66
2017-08-29 12:00:00 23.4 5 Nordeste 12 Norte 0 -- -- 69
2017-08-29 11:00:00 20.3 3 Nordeste 6 Norte 0 -- -- 80
2017-08-29 10:00:00 15.7 2 Sudeste 4 Sur 0 -- -- 99
2017-08-29 09:00:00 14.6 0 Calma 4 Sur 0 -- -- 99
2017-08-29 08:00:00 14.5 2 Sudoeste 5 Sudoeste 0 -- -- 98
2017-08-29 07:00:00 15.2 0 Calma 13 Sudoeste 0 -- -- 97
2017-08-29 06:00:00 15.7 3 Sudoeste 7 Sudoeste 0 -- -- 97
2017-08-29 05:00:00 16.2 2 Sur 5 Sur 0 -- -- 98
2017-08-29 04:00:00 16.5 0 Calma 5 Este 0 -- -- 96
2017-08-29 03:00:00 17.1 3 Este 20 Sudoeste 0 -- -- 94
2017-08-29 02:00:00 17.2 5 Sur 15 Sudoeste 0 -- -- 95
2017-08-29 01:00:00 17.3 11 Sudoeste 17 Sudoeste 0 -- -- 95
2017-08-29 00:00:00 17.4 2 Sur 17 Sudoeste 0 -- -- 95
2017-08-28 23:00:00 17.5 8 Sudoeste 13 Sudoeste 0 -- -- 94
2017-08-28 22:00:00 17.9 6 Sudoeste 18 Sudoeste 0 -- -- 94
2017-08-28 21:00:00 18.6 5 Sudoeste 17 Sur 3 -- -- 92
2017-08-28 20:00:00 22.4 20 Sudoeste 61 Sudoeste 1 -- -- 72
2017-08-28 19:00:00 27 8 Sudoeste 20 Sudoeste 0 -- -- 53
2017-08-28 18:00:00 29.4 7 Sudoeste 20 Oeste 0 -- -- 43
2017-08-28 17:00:00 30.7 9 Norte 18 Nordeste 0 -- -- 39
2017-08-28 16:00:00 31.1 10 Norte 24 Norte 0 -- -- 38
2017-08-28 15:00:00 31.1 9 Norte 21 Norte 0 -- -- 38
2017-08-28 14:00:00 29.8 4 Norte 9 Nordeste 0 -- -- 40
2017-08-28 13:00:00 27.4 2 Norte 5 Este 0 -- -- 48
2017-08-28 12:00:00 24.4 2 Sudeste 5 Este 0 -- -- 55
2017-08-28 11:00:00 22.2 0 Calma 4 Sur 0 -- -- 66
2017-08-28 10:00:00 17.5 0 Calma 4 Sur 0 -- -- 78
2017-08-28 09:00:00 15.1 2 Sur 5 Sudoeste 0 -- -- 87
2017-08-28 08:00:00 13.8 4 Sur 9 Sur 0 -- -- 86
2017-08-28 07:00:00 13.2 3 Sudoeste 8 Sur 0 -- -- 92
2017-08-28 06:00:00 13.5 3 Sudoeste 5 Sur 0 -- -- 93
2017-08-28 05:00:00 14.4 2 Sudoeste 6 Oeste 0 -- -- 92
2017-08-28 04:00:00 15.5 3 Sudoeste 6 Oeste 0 -- -- 92
2017-08-28 03:00:00 17 2 Norte 11 Nordeste 0 -- -- 86
2017-08-28 02:00:00 19.1 5 Nordeste 26 Sudoeste 0 -- -- 77
2017-08-28 01:00:00 16.9 4 Sur 9 Sudoeste 0 -- -- 89
2017-08-28 00:00:00 17.7 3 Sudoeste 12 Sudoeste 0 -- -- 83
2017-08-27 23:00:00 18.6 6 Sudoeste 14 Sudoeste 0 -- -- 80
2017-08-27 22:00:00 21.2 0 Calma 12 Norte 0 -- -- 72
2017-08-27 21:00:00 21.5 0 Calma 13 Norte 0 -- -- 79
2017-08-27 20:00:00 21.4 3 Sudoeste 6 Oeste 0 -- -- 86
2017-08-27 19:00:00 22.5 2 Sudoeste 15 Sur 0.2 -- -- 83
2017-08-27 18:00:00 26.6 4 Norte 17 Sudoeste 0 -- -- 56
2017-08-27 17:00:00 28.2 0 Calma 9 Norte 0 -- -- 50
2017-08-27 16:00:00 28.5 6 Norte 10 Norte 0 -- -- 50
2017-08-27 15:00:00 25.7 3 Este 6 Norte 0 -- -- 62
2017-08-27 14:00:00 25.4 3 Norte 11 Nordeste 0 -- -- 61
2017-08-27 13:00:00 23.5 3 Norte 8 Nordeste 0 -- -- 71
2017-08-27 12:00:00 22.1 0 Calma 4 Sur 0 -- -- 71
2017-08-27 11:00:00 22.1 2 Nordeste 5 Nordeste 0 -- -- 70
2017-08-27 10:00:00 19.7 2 Este 12 Sudoeste 0 -- -- 72
2017-08-27 09:00:00 18.4 5 Sudoeste 15 Sudoeste 0 -- -- 73
2017-08-27 08:00:00 16.7 2 Sudeste 5 Sudoeste 0 -- -- 80
2017-08-27 07:00:00 17.4 0 Calma 10 Sur 0 -- -- 75
2017-08-27 06:00:00 17.2 3 Sur 10 Sudoeste 0 -- -- 75
2017-08-27 05:00:00 17.5 5 Sur 12 Oeste 0 -- -- 75
2017-08-27 04:00:00 17.8 2 Oeste 10 Sudoeste 0 -- -- 76
2017-08-27 03:00:00 19 3 Este 11 Sudoeste 0 -- -- 74
2017-08-27 02:00:00 19.2 4 Sur 10 Nordeste 0 -- -- 73
2017-08-27 01:00:00 20.3 4 Nordeste 19 Sudoeste 0 -- -- 68
2017-08-27 00:00:00 21 7 Sur 23 Sudoeste 0 -- -- 68
2017-08-26 23:00:00 20.6 3 Sudoeste 12 Sudoeste 0 -- -- 74
2017-08-26 22:00:00 21.2 5 Sudoeste 15 Sudoeste 0 -- -- 73
2017-08-26 21:00:00 21.5 6 Sudoeste 10 Sudoeste 0 -- -- 73
2017-08-26 20:00:00 23 6 Sudoeste 9 Sudoeste 0 -- -- 70
2017-08-26 19:00:00 26.4 2 Sur 10 Nordeste 0 -- -- 59
2017-08-26 18:00:00 29.9 5 Nordeste 12 Norte 0 -- -- 50
2017-08-26 17:00:00 29.6 7 Sudoeste 14 Sudoeste 0 -- -- 55
2017-08-26 16:00:00 30.4 8 Sur 22 Oeste 0 -- -- 53
2017-08-26 15:00:00 31.4 5 Sudoeste 16 Sudoeste 0 -- -- 42
2017-08-26 14:00:00 31.9 8 Sudoeste 21 Sudoeste 0 -- -- 34
2017-08-26 13:00:00 27.7 8 Sudoeste 13 Sudoeste 0 -- -- 59
2017-08-26 12:00:00 24.1 10 Sudoeste 16 Sudoeste 0 -- -- 68
2017-08-26 11:00:00 23.6 10 Sudoeste 21 Sudoeste 0 -- -- 68
2017-08-26 10:00:00 22.3 13 Sudoeste 19 Sur 0 -- -- 64
2017-08-26 09:00:00 17.4 3 Sur 15 Sur 0 -- -- 77
2017-08-26 08:00:00 15.7 3 Nordeste 9 Sudoeste 0 -- -- 79
2017-08-26 07:00:00 15.8 2 Nordeste 17 Sudoeste 0 -- -- 78
2017-08-26 06:00:00 16.9 3 Oeste 22 Sudoeste 0 -- -- 73
2017-08-26 05:00:00 18.3 10 Sudoeste 20 Sudoeste 0 -- -- 63
2017-08-26 04:00:00 18.5 3 Oeste 24 Sudoeste 0 -- -- 64
2017-08-26 03:00:00 17.7 21 Sudoeste 25 Sudoeste 0 -- -- 68
2017-08-26 02:00:00 16.5 4 Norte 17 Sudoeste 0 -- -- 76
2017-08-26 01:00:00 16.5 6 Sudoeste 21 Sudoeste 0 -- -- 79
2017-08-26 00:00:00 15.8 3 Sudoeste 8 Sudoeste 0 -- -- 90